sensor_id;sensor_type;location;lat;lon;timestamp;P1;durP1;ratioP1;P2;durP2;ratioP2
21101;SDS011;10709;49.006;12.100;2024-01-30T00:01:07;31.07;;;19.03;;
21101;SDS011;10709;49.006;12.100;2024-01-30T00:03:34;24.03;;;16.90;;
21101;SDS011;10709;49.006;12.100;2024-01-30T00:06:00;29.10;;;19.17;;
21101;SDS011;10709;49.006;12.100;2024-01-30T00:08:29;28.47;;;17.77;;
21101;SDS011;10709;49.006;12.100;2024-01-30T00:10:57;30.77;;;19.00;;
21101;SDS011;10709;49.006;12.100;2024-01-30T00:13:23;29.70;;;18.10;;
21101;SDS011;10709;49.006;12.100;2024-01-30T00:15:50;35.97;;;19.07;;
21101;SDS011;10709;49.006;12.100;2024-01-30T00:18:17;28.50;;;19.57;;
21101;SDS011;10709;49.006;12.100;2024-01-30T00:20:44;32.10;;;18.00;;
21101;SDS011;10709;49.006;12.100;2024-01-30T00:23:11;28.30;;;19.13;;
21101;SDS011;10709;49.006;12.100;2024-01-30T00:25:38;29.20;;;18.23;;
21101;SDS011;10709;49.006;12.100;2024-01-30T00:28:04;28.60;;;18.47;;
21101;SDS011;10709;49.006;12.100;2024-01-30T00:30:31;27.07;;;18.00;;
21101;SDS011;10709;49.006;12.100;2024-01-30T00:32:58;28.50;;;18.90;;
21101;SDS011;10709;49.006;12.100;2024-01-30T00:35:24;31.30;;;19.10;;
21101;SDS011;10709;49.006;12.100;2024-01-30T00:37:51;29.10;;;18.40;;
21101;SDS011;10709;49.006;12.100;2024-01-30T00:40:18;29.43;;;18.60;;
21101;SDS011;10709;49.006;12.100;2024-01-30T00:42:45;31.00;;;18.07;;
21101;SDS011;10709;49.006;12.100;2024-01-30T00:45:15;29.87;;;19.27;;
21101;SDS011;10709;49.006;12.100;2024-01-30T00:47:44;30.97;;;19.30;;
21101;SDS011;10709;49.006;12.100;2024-01-30T00:50:11;28.77;;;18.50;;
21101;SDS011;10709;49.006;12.100;2024-01-30T00:52:38;30.20;;;19.13;;
21101;SDS011;10709;49.006;12.100;2024-01-30T00:55:06;29.63;;;18.77;;
21101;SDS011;10709;49.006;12.100;2024-01-30T00:57:33;32.50;;;19.67;;
21101;SDS011;10709;49.006;12.100;2024-01-30T01:00:00;31.57;;;19.93;;
21101;SDS011;10709;49.006;12.100;2024-01-30T01:02:26;30.73;;;19.47;;
21101;SDS011;10709;49.006;12.100;2024-01-30T01:04:53;32.60;;;20.20;;
21101;SDS011;10709;49.006;12.100;2024-01-30T01:07:19;30.40;;;18.70;;
21101;SDS011;10709;49.006;12.100;2024-01-30T01:09:47;30.20;;;20.13;;
21101;SDS011;10709;49.006;12.100;2024-01-30T01:12:14;32.17;;;18.80;;
21101;SDS011;10709;49.006;12.100;2024-01-30T01:14:42;29.43;;;19.10;;
21101;SDS011;10709;49.006;12.100;2024-01-30T01:17:09;28.83;;;18.37;;
21101;SDS011;10709;49.006;12.100;2024-01-30T01:19:36;32.90;;;19.50;;
21101;SDS011;10709;49.006;12.100;2024-01-30T01:22:03;29.30;;;19.10;;
21101;SDS011;10709;49.006;12.100;2024-01-30T01:24:33;30.50;;;20.90;;
21101;SDS011;10709;49.006;12.100;2024-01-30T01:27:00;34.23;;;21.00;;
21101;SDS011;10709;49.006;12.100;2024-01-30T01:29:27;35.17;;;21.33;;
21101;SDS011;10709;49.006;12.100;2024-01-30T01:31:57;29.77;;;19.83;;
21101;SDS011;10709;49.006;12.100;2024-01-30T01:34:24;29.97;;;19.53;;
21101;SDS011;10709;49.006;12.100;2024-01-30T01:36:56;33.13;;;21.30;;
21101;SDS011;10709;49.006;12.100;2024-01-30T01:39:25;31.37;;;20.57;;
21101;SDS011;10709;49.006;12.100;2024-01-30T01:41:53;33.97;;;22.23;;
21101;SDS011;10709;49.006;12.100;2024-01-30T01:44:20;35.77;;;22.20;;
21101;SDS011;10709;49.006;12.100;2024-01-30T01:46:46;35.87;;;20.87;;
21101;SDS011;10709;49.006;12.100;2024-01-30T01:49:14;39.97;;;22.47;;
21101;SDS011;10709;49.006;12.100;2024-01-30T01:51:42;34.10;;;21.60;;
21101;SDS011;10709;49.006;12.100;2024-01-30T01:54:11;32.50;;;21.27;;
21101;SDS011;10709;49.006;12.100;2024-01-30T01:56:38;30.03;;;20.70;;
21101;SDS011;10709;49.006;12.100;2024-01-30T01:59:06;32.67;;;20.57;;
21101;SDS011;10709;49.006;12.100;2024-01-30T02:01:37;34.57;;;20.47;;
21101;SDS011;10709;49.006;12.100;2024-01-30T02:04:04;34.33;;;22.80;;
21101;SDS011;10709;49.006;12.100;2024-01-30T02:06:33;34.17;;;21.77;;
21101;SDS011;10709;49.006;12.100;2024-01-30T02:09:01;36.30;;;22.87;;
21101;SDS011;10709;49.006;12.100;2024-01-30T02:11:33;34.70;;;21.97;;
21101;SDS011;10709;49.006;12.100;2024-01-30T02:14:03;36.13;;;22.00;;
21101;SDS011;10709;49.006;12.100;2024-01-30T02:16:31;33.07;;;20.63;;
21101;SDS011;10709;49.006;12.100;2024-01-30T02:18:59;38.80;;;23.20;;
21101;SDS011;10709;49.006;12.100;2024-01-30T02:21:25;34.63;;;21.57;;
21101;SDS011;10709;49.006;12.100;2024-01-30T02:23:53;37.20;;;21.83;;
21101;SDS011;10709;49.006;12.100;2024-01-30T02:26:21;40.87;;;22.97;;
21101;SDS011;10709;49.006;12.100;2024-01-30T02:28:48;36.27;;;22.60;;
21101;SDS011;10709;49.006;12.100;2024-01-30T02:31:18;35.83;;;22.30;;
21101;SDS011;10709;49.006;12.100;2024-01-30T02:33:45;29.27;;;20.43;;
21101;SDS011;10709;49.006;12.100;2024-01-30T02:36:12;32.83;;;21.40;;
21101;SDS011;10709;49.006;12.100;2024-01-30T02:38:39;37.13;;;22.50;;
21101;SDS011;10709;49.006;12.100;2024-01-30T02:41:06;35.87;;;22.57;;
21101;SDS011;10709;49.006;12.100;2024-01-30T02:43:32;34.50;;;21.73;;
21101;SDS011;10709;49.006;12.100;2024-01-30T02:45:59;32.50;;;22.10;;
21101;SDS011;10709;49.006;12.100;2024-01-30T02:48:27;35.60;;;22.97;;
21101;SDS011;10709;49.006;12.100;2024-01-30T02:50:55;32.23;;;20.90;;
21101;SDS011;10709;49.006;12.100;2024-01-30T02:53:21;34.30;;;22.37;;
21101;SDS011;10709;49.006;12.100;2024-01-30T02:55:48;32.57;;;21.07;;
21101;SDS011;10709;49.006;12.100;2024-01-30T02:58:15;35.70;;;21.20;;
21101;SDS011;10709;49.006;12.100;2024-01-30T03:00:41;36.30;;;22.50;;
21101;SDS011;10709;49.006;12.100;2024-01-30T03:03:08;31.93;;;20.40;;
21101;SDS011;10709;49.006;12.100;2024-01-30T03:05:35;31.70;;;20.00;;
21101;SDS011;10709;49.006;12.100;2024-01-30T03:08:01;32.90;;;20.17;;
21101;SDS011;10709;49.006;12.100;2024-01-30T03:10:30;35.13;;;20.80;;
21101;SDS011;10709;49.006;12.100;2024-01-30T03:12:56;28.23;;;19.57;;
21101;SDS011;10709;49.006;12.100;2024-01-30T03:15:23;31.67;;;19.43;;
21101;SDS011;10709;49.006;12.100;2024-01-30T03:17:50;29.93;;;18.90;;
21101;SDS011;10709;49.006;12.100;2024-01-30T03:20:16;32.70;;;19.70;;
21101;SDS011;10709;49.006;12.100;2024-01-30T03:22:43;29.97;;;19.47;;
21101;SDS011;10709;49.006;12.100;2024-01-30T03:25:10;27.80;;;19.03;;
21101;SDS011;10709;49.006;12.100;2024-01-30T03:27:36;29.93;;;20.03;;
21101;SDS011;10709;49.006;12.100;2024-01-30T03:30:03;34.77;;;22.30;;
21101;SDS011;10709;49.006;12.100;2024-01-30T03:32:30;31.23;;;20.77;;
21101;SDS011;10709;49.006;12.100;2024-01-30T03:34:57;34.83;;;21.50;;
21101;SDS011;10709;49.006;12.100;2024-01-30T03:37:24;34.23;;;21.90;;
21101;SDS011;10709;49.006;12.100;2024-01-30T03:39:51;34.27;;;20.30;;
21101;SDS011;10709;49.006;12.100;2024-01-30T03:42:17;29.10;;;19.23;;
21101;SDS011;10709;49.006;12.100;2024-01-30T03:44:44;30.47;;;19.37;;
21101;SDS011;10709;49.006;12.100;2024-01-30T03:47:11;30.13;;;19.77;;
21101;SDS011;10709;49.006;12.100;2024-01-30T03:49:38;27.73;;;18.27;;
21101;SDS011;10709;49.006;12.100;2024-01-30T03:52:04;31.50;;;18.77;;
21101;SDS011;10709;49.006;12.100;2024-01-30T03:54:31;27.73;;;17.17;;
21101;SDS011;10709;49.006;12.100;2024-01-30T03:56:58;26.60;;;17.23;;
21101;SDS011;10709;49.006;12.100;2024-01-30T03:59:25;27.13;;;18.30;;
21101;SDS011;10709;49.006;12.100;2024-01-30T04:01:52;28.97;;;18.10;;
21101;SDS011;10709;49.006;12.100;2024-01-30T04:04:19;28.03;;;18.50;;
21101;SDS011;10709;49.006;12.100;2024-01-30T04:06:46;28.13;;;17.63;;
21101;SDS011;10709;49.006;12.100;2024-01-30T04:09:13;28.83;;;18.03;;
21101;SDS011;10709;49.006;12.100;2024-01-30T04:11:41;29.10;;;18.13;;
21101;SDS011;10709;49.006;12.100;2024-01-30T04:14:08;25.60;;;17.07;;
21101;SDS011;10709;49.006;12.100;2024-01-30T04:16:36;27.33;;;16.93;;
21101;SDS011;10709;49.006;12.100;2024-01-30T04:19:02;26.40;;;16.63;;
21101;SDS011;10709;49.006;12.100;2024-01-30T04:21:29;25.90;;;15.50;;
21101;SDS011;10709;49.006;12.100;2024-01-30T04:23:56;24.63;;;16.23;;
21101;SDS011;10709;49.006;12.100;2024-01-30T04:26:24;23.80;;;15.37;;
21101;SDS011;10709;49.006;12.100;2024-01-30T04:28:50;23.30;;;15.07;;
21101;SDS011;10709;49.006;12.100;2024-01-30T04:31:17;23.47;;;14.87;;
21101;SDS011;10709;49.006;12.100;2024-01-30T04:33:44;24.00;;;15.37;;
21101;SDS011;10709;49.006;12.100;2024-01-30T04:36:10;23.23;;;14.57;;
21101;SDS011;10709;49.006;12.100;2024-01-30T04:38:38;24.67;;;14.63;;
21101;SDS011;10709;49.006;12.100;2024-01-30T04:41:05;23.57;;;14.33;;
21101;SDS011;10709;49.006;12.100;2024-01-30T04:43:32;21.93;;;14.17;;
21101;SDS011;10709;49.006;12.100;2024-01-30T04:45:58;23.87;;;14.63;;
21101;SDS011;10709;49.006;12.100;2024-01-30T04:48:25;21.97;;;14.17;;
21101;SDS011;10709;49.006;12.100;2024-01-30T04:50:51;29.17;;;16.27;;
21101;SDS011;10709;49.006;12.100;2024-01-30T04:53:18;28.13;;;16.13;;
21101;SDS011;10709;49.006;12.100;2024-01-30T04:55:45;21.50;;;14.37;;
21101;SDS011;10709;49.006;12.100;2024-01-30T04:58:12;20.70;;;13.87;;
21101;SDS011;10709;49.006;12.100;2024-01-30T05:00:39;21.40;;;14.13;;
21101;SDS011;10709;49.006;12.100;2024-01-30T05:03:06;21.53;;;14.47;;
21101;SDS011;10709;49.006;12.100;2024-01-30T05:05:32;23.57;;;13.97;;
21101;SDS011;10709;49.006;12.100;2024-01-30T05:07:59;21.53;;;14.00;;
21101;SDS011;10709;49.006;12.100;2024-01-30T05:10:26;23.07;;;14.70;;
21101;SDS011;10709;49.006;12.100;2024-01-30T05:12:55;23.60;;;14.57;;
21101;SDS011;10709;49.006;12.100;2024-01-30T05:15:22;19.77;;;14.03;;
21101;SDS011;10709;49.006;12.100;2024-01-30T05:17:48;24.03;;;15.43;;
21101;SDS011;10709;49.006;12.100;2024-01-30T05:20:16;26.37;;;15.43;;
21101;SDS011;10709;49.006;12.100;2024-01-30T05:22:43;29.77;;;18.07;;
21101;SDS011;10709;49.006;12.100;2024-01-30T05:25:12;29.07;;;18.87;;
21101;SDS011;10709;49.006;12.100;2024-01-30T05:27:39;29.70;;;18.03;;
21101;SDS011;10709;49.006;12.100;2024-01-30T05:30:06;29.90;;;18.03;;
21101;SDS011;10709;49.006;12.100;2024-01-30T05:32:34;31.80;;;19.57;;
21101;SDS011;10709;49.006;12.100;2024-01-30T05:35:01;30.30;;;19.90;;
21101;SDS011;10709;49.006;12.100;2024-01-30T05:37:27;37.23;;;22.77;;
21101;SDS011;10709;49.006;12.100;2024-01-30T05:39:54;40.70;;;24.27;;
21101;SDS011;10709;49.006;12.100;2024-01-30T05:42:21;34.77;;;22.77;;
21101;SDS011;10709;49.006;12.100;2024-01-30T05:44:48;34.90;;;22.73;;
21101;SDS011;10709;49.006;12.100;2024-01-30T05:47:15;32.73;;;21.27;;
21101;SDS011;10709;49.006;12.100;2024-01-30T05:49:41;38.27;;;22.87;;
21101;SDS011;10709;49.006;12.100;2024-01-30T05:52:08;36.73;;;23.07;;
21101;SDS011;10709;49.006;12.100;2024-01-30T05:54:35;32.07;;;21.47;;
21101;SDS011;10709;49.006;12.100;2024-01-30T05:57:01;39.87;;;23.63;;
21101;SDS011;10709;49.006;12.100;2024-01-30T05:59:28;36.37;;;23.43;;
21101;SDS011;10709;49.006;12.100;2024-01-30T06:01:55;36.53;;;24.17;;
21101;SDS011;10709;49.006;12.100;2024-01-30T06:04:22;33.87;;;21.80;;
21101;SDS011;10709;49.006;12.100;2024-01-30T06:06:48;37.50;;;24.13;;
21101;SDS011;10709;49.006;12.100;2024-01-30T06:09:16;36.33;;;22.77;;
21101;SDS011;10709;49.006;12.100;2024-01-30T06:11:43;36.47;;;22.67;;
21101;SDS011;10709;49.006;12.100;2024-01-30T06:14:09;37.77;;;22.73;;
21101;SDS011;10709;49.006;12.100;2024-01-30T06:16:36;38.07;;;23.10;;
21101;SDS011;10709;49.006;12.100;2024-01-30T06:19:02;34.43;;;21.80;;
21101;SDS011;10709;49.006;12.100;2024-01-30T06:21:29;34.20;;;20.57;;
21101;SDS011;10709;49.006;12.100;2024-01-30T06:23:56;34.03;;;21.53;;
21101;SDS011;10709;49.006;12.100;2024-01-30T06:26:23;30.77;;;19.70;;
21101;SDS011;10709;49.006;12.100;2024-01-30T06:28:49;31.83;;;20.60;;
21101;SDS011;10709;49.006;12.100;2024-01-30T06:31:16;32.23;;;21.63;;
21101;SDS011;10709;49.006;12.100;2024-01-30T06:33:43;34.60;;;21.07;;
21101;SDS011;10709;49.006;12.100;2024-01-30T06:36:09;34.40;;;20.83;;
21101;SDS011;10709;49.006;12.100;2024-01-30T06:38:37;28.53;;;20.17;;
21101;SDS011;10709;49.006;12.100;2024-01-30T06:41:04;30.17;;;19.30;;
21101;SDS011;10709;49.006;12.100;2024-01-30T06:43:31;28.57;;;19.10;;
21101;SDS011;10709;49.006;12.100;2024-01-30T06:45:58;29.23;;;18.77;;
21101;SDS011;10709;49.006;12.100;2024-01-30T06:48:25;31.37;;;19.87;;
21101;SDS011;10709;49.006;12.100;2024-01-30T06:50:55;32.33;;;18.87;;
21101;SDS011;10709;49.006;12.100;2024-01-30T06:53:23;35.77;;;20.87;;
21101;SDS011;10709;49.006;12.100;2024-01-30T06:55:49;35.43;;;20.67;;
21101;SDS011;10709;49.006;12.100;2024-01-30T06:58:16;37.27;;;21.67;;
21101;SDS011;10709;49.006;12.100;2024-01-30T07:00:42;33.70;;;21.40;;
21101;SDS011;10709;49.006;12.100;2024-01-30T07:03:09;34.60;;;21.13;;
21101;SDS011;10709;49.006;12.100;2024-01-30T07:05:36;31.83;;;20.30;;
21101;SDS011;10709;49.006;12.100;2024-01-30T07:08:04;32.63;;;20.07;;
21101;SDS011;10709;49.006;12.100;2024-01-30T07:10:31;30.17;;;19.60;;
21101;SDS011;10709;49.006;12.100;2024-01-30T07:12:58;26.73;;;18.97;;
21101;SDS011;10709;49.006;12.100;2024-01-30T07:15:24;30.47;;;18.67;;
21101;SDS011;10709;49.006;12.100;2024-01-30T07:17:51;31.83;;;19.93;;
21101;SDS011;10709;49.006;12.100;2024-01-30T07:20:18;32.83;;;20.57;;
21101;SDS011;10709;49.006;12.100;2024-01-30T07:22:47;33.43;;;18.73;;
21101;SDS011;10709;49.006;12.100;2024-01-30T07:25:14;30.83;;;18.93;;
21101;SDS011;10709;49.006;12.100;2024-01-30T07:27:40;29.67;;;19.40;;
21101;SDS011;10709;49.006;12.100;2024-01-30T07:30:07;29.77;;;19.60;;
21101;SDS011;10709;49.006;12.100;2024-01-30T07:32:34;29.33;;;19.40;;
21101;SDS011;10709;49.006;12.100;2024-01-30T07:35:00;36.33;;;22.37;;
21101;SDS011;10709;49.006;12.100;2024-01-30T07:37:34;40.97;;;23.30;;
21101;SDS011;10709;49.006;12.100;2024-01-30T07:40:01;41.10;;;23.63;;
21101;SDS011;10709;49.006;12.100;2024-01-30T07:42:29;35.23;;;21.20;;
21101;SDS011;10709;49.006;12.100;2024-01-30T07:44:57;35.40;;;20.77;;
21101;SDS011;10709;49.006;12.100;2024-01-30T07:47:24;30.97;;;19.43;;
21101;SDS011;10709;49.006;12.100;2024-01-30T07:49:51;30.47;;;21.30;;
21101;SDS011;10709;49.006;12.100;2024-01-30T07:52:18;31.83;;;20.93;;
21101;SDS011;10709;49.006;12.100;2024-01-30T07:54:44;36.93;;;21.73;;
21101;SDS011;10709;49.006;12.100;2024-01-30T07:57:11;35.03;;;21.83;;
21101;SDS011;10709;49.006;12.100;2024-01-30T07:59:37;33.03;;;21.20;;
21101;SDS011;10709;49.006;12.100;2024-01-30T08:02:04;34.90;;;21.87;;
21101;SDS011;10709;49.006;12.100;2024-01-30T08:04:31;32.60;;;21.00;;
21101;SDS011;10709;49.006;12.100;2024-01-30T08:06:57;35.13;;;22.67;;
21101;SDS011;10709;49.006;12.100;2024-01-30T08:09:27;33.43;;;21.90;;
21101;SDS011;10709;49.006;12.100;2024-01-30T08:11:53;40.17;;;24.27;;
21101;SDS011;10709;49.006;12.100;2024-01-30T08:14:21;37.37;;;22.70;;
21101;SDS011;10709;49.006;12.100;2024-01-30T08:16:47;37.73;;;23.20;;
21101;SDS011;10709;49.006;12.100;2024-01-30T08:19:14;36.73;;;22.70;;
21101;SDS011;10709;49.006;12.100;2024-01-30T08:21:41;37.17;;;22.40;;
21101;SDS011;10709;49.006;12.100;2024-01-30T08:24:08;36.43;;;21.90;;
21101;SDS011;10709;49.006;12.100;2024-01-30T08:26:34;35.93;;;22.17;;
21101;SDS011;10709;49.006;12.100;2024-01-30T08:29:01;35.90;;;22.70;;
21101;SDS011;10709;49.006;12.100;2024-01-30T08:31:28;35.23;;;24.00;;
21101;SDS011;10709;49.006;12.100;2024-01-30T08:33:57;36.20;;;25.00;;
21101;SDS011;10709;49.006;12.100;2024-01-30T08:36:25;34.83;;;22.87;;
21101;SDS011;10709;49.006;12.100;2024-01-30T08:38:51;35.80;;;22.40;;
21101;SDS011;10709;49.006;12.100;2024-01-30T08:41:26;33.20;;;21.80;;
21101;SDS011;10709;49.006;12.100;2024-01-30T08:43:54;39.13;;;24.23;;
21101;SDS011;10709;49.006;12.100;2024-01-30T08:46:20;35.43;;;24.03;;
21101;SDS011;10709;49.006;12.100;2024-01-30T08:48:47;38.97;;;24.00;;
21101;SDS011;10709;49.006;12.100;2024-01-30T08:51:14;36.77;;;24.93;;
21101;SDS011;10709;49.006;12.100;2024-01-30T08:53:41;39.17;;;25.23;;
21101;SDS011;10709;49.006;12.100;2024-01-30T08:56:08;43.67;;;24.73;;
21101;SDS011;10709;49.006;12.100;2024-01-30T08:58:34;38.87;;;24.93;;
21101;SDS011;10709;49.006;12.100;2024-01-30T09:01:01;36.57;;;24.03;;
21101;SDS011;10709;49.006;12.100;2024-01-30T09:03:30;37.30;;;25.23;;
21101;SDS011;10709;49.006;12.100;2024-01-30T09:05:56;39.60;;;24.53;;
21101;SDS011;10709;49.006;12.100;2024-01-30T09:08:23;41.73;;;25.40;;
21101;SDS011;10709;49.006;12.100;2024-01-30T09:10:50;43.63;;;26.70;;
21101;SDS011;10709;49.006;12.100;2024-01-30T09:13:16;39.63;;;26.50;;
21101;SDS011;10709;49.006;12.100;2024-01-30T09:15:43;39.97;;;26.00;;
21101;SDS011;10709;49.006;12.100;2024-01-30T09:18:09;42.33;;;27.17;;
21101;SDS011;10709;49.006;12.100;2024-01-30T09:20:36;42.17;;;26.63;;
21101;SDS011;10709;49.006;12.100;2024-01-30T09:23:03;41.90;;;25.67;;
21101;SDS011;10709;49.006;12.100;2024-01-30T09:25:29;44.10;;;27.67;;
21101;SDS011;10709;49.006;12.100;2024-01-30T09:27:57;46.07;;;28.43;;
21101;SDS011;10709;49.006;12.100;2024-01-30T09:30:23;44.87;;;27.13;;
21101;SDS011;10709;49.006;12.100;2024-01-30T09:32:50;41.20;;;25.73;;
21101;SDS011;10709;49.006;12.100;2024-01-30T09:35:17;43.37;;;27.23;;
21101;SDS011;10709;49.006;12.100;2024-01-30T09:37:44;42.20;;;26.87;;
21101;SDS011;10709;49.006;12.100;2024-01-30T09:40:11;39.70;;;26.43;;
21101;SDS011;10709;49.006;12.100;2024-01-30T09:42:38;45.37;;;28.27;;
21101;SDS011;10709;49.006;12.100;2024-01-30T09:45:06;40.93;;;26.03;;
21101;SDS011;10709;49.006;12.100;2024-01-30T09:47:40;42.33;;;26.50;;
21101;SDS011;10709;49.006;12.100;2024-01-30T09:50:09;40.43;;;26.10;;
21101;SDS011;10709;49.006;12.100;2024-01-30T09:52:40;38.03;;;24.73;;
21101;SDS011;10709;49.006;12.100;2024-01-30T09:55:08;42.37;;;27.00;;
21101;SDS011;10709;49.006;12.100;2024-01-30T09:57:35;39.67;;;25.77;;
21101;SDS011;10709;49.006;12.100;2024-01-30T10:00:03;37.77;;;26.10;;
21101;SDS011;10709;49.006;12.100;2024-01-30T10:02:31;37.30;;;25.03;;
21101;SDS011;10709;49.006;12.100;2024-01-30T10:04:58;41.43;;;26.87;;
21101;SDS011;10709;49.006;12.100;2024-01-30T10:07:26;41.93;;;27.37;;
21101;SDS011;10709;49.006;12.100;2024-01-30T10:09:53;46.00;;;29.37;;
21101;SDS011;10709;49.006;12.100;2024-01-30T10:12:19;48.00;;;29.40;;
21101;SDS011;10709;49.006;12.100;2024-01-30T10:14:46;45.20;;;29.03;;
21101;SDS011;10709;49.006;12.100;2024-01-30T10:17:13;43.27;;;27.47;;
21101;SDS011;10709;49.006;12.100;2024-01-30T10:19:53;43.33;;;28.40;;
21101;SDS011;10709;49.006;12.100;2024-01-30T10:22:20;42.53;;;27.50;;
21101;SDS011;10709;49.006;12.100;2024-01-30T10:24:48;41.20;;;27.77;;
21101;SDS011;10709;49.006;12.100;2024-01-30T10:27:15;48.80;;;29.80;;
21101;SDS011;10709;49.006;12.100;2024-01-30T10:29:41;48.20;;;29.53;;
21101;SDS011;10709;49.006;12.100;2024-01-30T10:32:08;45.57;;;29.80;;
21101;SDS011;10709;49.006;12.100;2024-01-30T10:34:35;41.97;;;28.17;;
21101;SDS011;10709;49.006;12.100;2024-01-30T10:37:09;49.23;;;29.83;;
21101;SDS011;10709;49.006;12.100;2024-01-30T10:39:43;44.50;;;29.07;;
21101;SDS011;10709;49.006;12.100;2024-01-30T10:42:12;41.77;;;28.63;;
21101;SDS011;10709;49.006;12.100;2024-01-30T10:47:25;43.70;;;28.27;;
21101;SDS011;10709;49.006;12.100;2024-01-30T10:49:55;42.30;;;27.93;;
21101;SDS011;10709;49.006;12.100;2024-01-30T10:52:24;44.47;;;28.53;;
21101;SDS011;10709;49.006;12.100;2024-01-30T10:54:53;45.20;;;28.83;;
21101;SDS011;10709;49.006;12.100;2024-01-30T10:57:24;41.47;;;27.47;;
21101;SDS011;10709;49.006;12.100;2024-01-30T10:59:55;45.27;;;28.13;;
21101;SDS011;10709;49.006;12.100;2024-01-30T11:02:23;41.00;;;27.80;;
21101;SDS011;10709;49.006;12.100;2024-01-30T11:04:55;44.93;;;29.33;;
21101;SDS011;10709;49.006;12.100;2024-01-30T11:07:28;45.60;;;28.57;;
21101;SDS011;10709;49.006;12.100;2024-01-30T11:12:27;44.03;;;28.40;;
21101;SDS011;10709;49.006;12.100;2024-01-30T11:15:28;42.07;;;28.40;;
21101;SDS011;10709;49.006;12.100;2024-01-30T11:17:51;44.43;;;28.20;;
21101;SDS011;10709;49.006;12.100;2024-01-30T11:22:54;45.60;;;28.70;;
21101;SDS011;10709;49.006;12.100;2024-01-30T11:25:22;42.83;;;28.60;;
21101;SDS011;10709;49.006;12.100;2024-01-30T11:27:51;45.40;;;28.60;;
21101;SDS011;10709;49.006;12.100;2024-01-30T11:35:43;40.33;;;26.57;;
21101;SDS011;10709;49.006;12.100;2024-01-30T11:38:13;37.27;;;25.37;;
21101;SDS011;10709;49.006;12.100;2024-01-30T11:40:42;42.83;;;27.53;;
21101;SDS011;10709;49.006;12.100;2024-01-30T11:43:14;38.77;;;25.97;;
21101;SDS011;10709;49.006;12.100;2024-01-30T11:45:42;44.50;;;29.23;;
21101;SDS011;10709;49.006;12.100;2024-01-30T11:48:11;40.10;;;26.63;;
21101;SDS011;10709;49.006;12.100;2024-01-30T11:50:40;38.13;;;26.67;;
21101;SDS011;10709;49.006;12.100;2024-01-30T11:53:07;42.80;;;28.20;;
21101;SDS011;10709;49.006;12.100;2024-01-30T11:55:35;40.50;;;27.20;;
21101;SDS011;10709;49.006;12.100;2024-01-30T11:58:04;38.63;;;25.93;;
21101;SDS011;10709;49.006;12.100;2024-01-30T12:00:30;41.03;;;25.30;;
21101;SDS011;10709;49.006;12.100;2024-01-30T12:02:59;36.23;;;24.70;;
21101;SDS011;10709;49.006;12.100;2024-01-30T12:05:28;35.70;;;25.50;;
21101;SDS011;10709;49.006;12.100;2024-01-30T12:07:55;35.93;;;24.47;;
21101;SDS011;10709;49.006;12.100;2024-01-30T12:10:25;41.53;;;26.47;;
21101;SDS011;10709;49.006;12.100;2024-01-30T12:12:56;35.20;;;24.63;;
21101;SDS011;10709;49.006;12.100;2024-01-30T12:15:24;38.17;;;25.80;;
21101;SDS011;10709;49.006;12.100;2024-01-30T12:17:52;38.20;;;25.57;;
21101;SDS011;10709;49.006;12.100;2024-01-30T12:20:19;37.27;;;23.77;;
21101;SDS011;10709;49.006;12.100;2024-01-30T12:22:49;33.10;;;23.80;;
21101;SDS011;10709;49.006;12.100;2024-01-30T12:25:17;40.17;;;24.90;;
21101;SDS011;10709;49.006;12.100;2024-01-30T12:27:45;39.10;;;24.13;;
21101;SDS011;10709;49.006;12.100;2024-01-30T12:30:19;38.47;;;24.13;;
21101;SDS011;10709;49.006;12.100;2024-01-30T12:32:49;37.70;;;23.47;;
21101;SDS011;10709;49.006;12.100;2024-01-30T12:35:20;34.40;;;24.00;;
21101;SDS011;10709;49.006;12.100;2024-01-30T12:37:48;33.07;;;22.43;;
21101;SDS011;10709;49.006;12.100;2024-01-30T12:40:15;35.07;;;22.93;;
21101;SDS011;10709;49.006;12.100;2024-01-30T12:42:43;30.90;;;22.27;;
21101;SDS011;10709;49.006;12.100;2024-01-30T12:45:16;32.17;;;22.57;;
21101;SDS011;10709;49.006;12.100;2024-01-30T12:47:47;32.33;;;22.57;;
21101;SDS011;10709;49.006;12.100;2024-01-30T12:50:15;34.87;;;22.73;;
21101;SDS011;10709;49.006;12.100;2024-01-30T12:52:44;32.53;;;23.53;;
21101;SDS011;10709;49.006;12.100;2024-01-30T12:55:15;36.93;;;22.40;;
21101;SDS011;10709;49.006;12.100;2024-01-30T12:57:42;32.93;;;22.80;;
21101;SDS011;10709;49.006;12.100;2024-01-30T13:00:09;32.17;;;21.73;;
21101;SDS011;10709;49.006;12.100;2024-01-30T13:02:36;30.50;;;21.90;;
21101;SDS011;10709;49.006;12.100;2024-01-30T13:05:03;37.73;;;22.00;;
21101;SDS011;10709;49.006;12.100;2024-01-30T13:07:31;33.77;;;22.77;;
21101;SDS011;10709;49.006;12.100;2024-01-30T13:09:57;32.67;;;22.53;;
21101;SDS011;10709;49.006;12.100;2024-01-30T13:12:30;30.40;;;21.70;;
21101;SDS011;10709;49.006;12.100;2024-01-30T13:14:58;34.63;;;22.77;;
21101;SDS011;10709;49.006;12.100;2024-01-30T13:17:27;34.73;;;23.93;;
21101;SDS011;10709;49.006;12.100;2024-01-30T13:19:54;35.97;;;22.97;;
21101;SDS011;10709;49.006;12.100;2024-01-30T13:22:27;35.43;;;23.40;;
21101;SDS011;10709;49.006;12.100;2024-01-30T13:24:53;37.10;;;24.40;;
21101;SDS011;10709;49.006;12.100;2024-01-30T13:27:20;35.33;;;22.17;;
21101;SDS011;10709;49.006;12.100;2024-01-30T13:29:47;32.27;;;22.93;;
21101;SDS011;10709;49.006;12.100;2024-01-30T13:32:13;31.47;;;22.27;;
21101;SDS011;10709;49.006;12.100;2024-01-30T13:34:40;33.17;;;23.10;;
21101;SDS011;10709;49.006;12.100;2024-01-30T13:37:07;32.10;;;23.53;;
21101;SDS011;10709;49.006;12.100;2024-01-30T13:39:35;33.77;;;23.63;;
21101;SDS011;10709;49.006;12.100;2024-01-30T13:42:05;34.57;;;23.67;;
21101;SDS011;10709;49.006;12.100;2024-01-30T13:44:31;38.80;;;24.97;;
21101;SDS011;10709;49.006;12.100;2024-01-30T13:46:58;35.37;;;22.67;;
21101;SDS011;10709;49.006;12.100;2024-01-30T13:49:25;33.83;;;22.67;;
21101;SDS011;10709;49.006;12.100;2024-01-30T13:51:52;33.40;;;22.90;;
21101;SDS011;10709;49.006;12.100;2024-01-30T13:54:21;35.43;;;25.00;;
21101;SDS011;10709;49.006;12.100;2024-01-30T13:56:47;34.90;;;24.00;;
21101;SDS011;10709;49.006;12.100;2024-01-30T13:59:14;32.67;;;22.83;;
21101;SDS011;10709;49.006;12.100;2024-01-30T14:01:41;39.77;;;24.10;;
21101;SDS011;10709;49.006;12.100;2024-01-30T14:04:08;35.83;;;24.07;;
21101;SDS011;10709;49.006;12.100;2024-01-30T14:06:38;34.47;;;24.20;;
21101;SDS011;10709;49.006;12.100;2024-01-30T14:09:15;34.27;;;23.13;;
21101;SDS011;10709;49.006;12.100;2024-01-30T14:11:42;40.80;;;23.57;;
21101;SDS011;10709;49.006;12.100;2024-01-30T14:14:09;38.30;;;24.80;;
21101;SDS011;10709;49.006;12.100;2024-01-30T14:16:36;37.67;;;24.07;;
21101;SDS011;10709;49.006;12.100;2024-01-30T14:19:03;33.93;;;23.03;;
21101;SDS011;10709;49.006;12.100;2024-01-30T14:21:29;35.80;;;23.63;;
21101;SDS011;10709;49.006;12.100;2024-01-30T14:23:56;31.37;;;22.17;;